Time;durP1;ratioP1;P1;durP2;ratioP2;P2;SDS_P1;SDS_P2;PMS_P1;PMS_P2;Temp;Humidity;BMP_temperature;BMP_pressure;BME280_temperature;BME280_humidity;BME280_pressure;Samples;Min_cycle;Max_cycle;Signal;HPM_P1;HPM_P2
2023/12/19 00:02:23;;;;;;;40.53;19.38;;;;;;;;;;7391336;19;20448;-74
2023/12/19 00:04:48;;;;;;;40.13;18.42;;;;;;;;;;7368531;19;20377;-74
2023/12/19 00:07:14;;;;;;;42.30;19.05;;;;;;;;;;7367555;19;20026;-76
2023/12/19 00:09:40;;;;;;;36.42;16.90;;;;;;;;;;7368618;19;20014;-76
2023/12/19 00:12:08;;;;;;;41.15;19.52;;;;;;;;;;7370356;19;20015;-76
2023/12/19 00:14:33;;;;;;;35.85;18.30;;;;;;;;;;7393215;19;20006;-76
2023/12/19 00:16:59;;;;;;;38.78;19.15;;;;;;;;;;7375072;19;20052;-75
2023/12/19 00:19:24;;;;;;;38.25;18.50;;;;;;;;;;7369837;19;20605;-75
2023/12/19 00:21:50;;;;;;;38.80;17.95;;;;;;;;;;7368492;19;20017;-75
2023/12/19 00:24:15;;;;;;;41.60;19.58;;;;;;;;;;7367627;19;20017;-75
2023/12/19 00:26:40;;;;;;;45.97;21.00;;;;;;;;;;7390082;19;20034;-75
2023/12/19 00:29:06;;;;;;;49.85;20.95;;;;;;;;;;7366660;19;20014;-75
2023/12/19 00:31:31;;;;;;;51.55;21.77;;;;;;;;;;7368440;19;20093;-75
2023/12/19 00:33:57;;;;;;;47.72;20.08;;;;;;;;;;7375724;19;20013;-75
2023/12/19 00:36:23;;;;;;;50.88;21.50;;;;;;;;;;7376033;19;20018;-76
2023/12/19 00:38:48;;;;;;;41.08;20.33;;;;;;;;;;7371101;19;20014;-76
2023/12/19 00:41:15;;;;;;;43.05;20.67;;;;;;;;;;7389913;19;19999;-76
2023/12/19 00:43:44;;;;;;;39.00;18.42;;;;;;;;;;7365241;19;20093;-75
2023/12/19 00:46:09;;;;;;;38.72;17.52;;;;;;;;;;7368042;19;20006;-76
2023/12/19 00:48:35;;;;;;;41.00;18.67;;;;;;;;;;7369105;19;20471;-75
2023/12/19 00:51:01;;;;;;;37.80;18.30;;;;;;;;;;7371573;19;20309;-75
2023/12/19 00:53:26;;;;;;;40.90;19.30;;;;;;;;;;7390858;19;20017;-75
2023/12/19 00:55:51;;;;;;;42.20;18.25;;;;;;;;;;7370471;19;20109;-74
2023/12/19 00:58:17;;;;;;;35.88;18.42;;;;;;;;;;7375084;19;20289;-76
2023/12/19 01:00:42;;;;;;;38.08;18.52;;;;;;;;;;7373533;19;20595;-76
2023/12/19 01:03:07;;;;;;;36.45;17.73;;;;;;;;;;7374095;19;20034;-75
2023/12/19 01:05:33;;;;;;;35.25;18.27;;;;;;;;;;7395722;19;20019;-75
2023/12/19 01:07:58;;;;;;;39.35;18.17;;;;;;;;;;7371554;19;20021;-75
2023/12/19 01:10:23;;;;;;;33.90;16.90;;;;;;;;;;7372549;19;20018;-76
2023/12/19 01:12:49;;;;;;;41.80;19.17;;;;;;;;;;7371853;19;20010;-77
2023/12/19 01:15:14;;;;;;;44.40;19.13;;;;;;;;;;7371627;19;20020;-75
2023/12/19 01:17:39;;;;;;;38.47;18.60;;;;;;;;;;7394431;19;20023;-75
2023/12/19 01:20:05;;;;;;;36.22;18.58;;;;;;;;;;7371445;19;20553;-76
2023/12/19 01:22:31;;;;;;;37.67;18.20;;;;;;;;;;7370296;19;20006;-76
2023/12/19 01:24:56;;;;;;;37.03;17.92;;;;;;;;;;7371066;19;20003;-76
2023/12/19 01:27:21;;;;;;;36.47;18.67;;;;;;;;;;7370586;19;20018;-76
2023/12/19 01:29:47;;;;;;;41.25;19.98;;;;;;;;;;7372407;19;20010;-75
2023/12/19 01:32:14;;;;;;;46.72;20.00;;;;;;;;;;7393179;19;20010;-75
2023/12/19 01:34:40;;;;;;;45.10;21.23;;;;;;;;;;7370158;19;20017;-75
2023/12/19 01:37:05;;;;;;;46.65;20.40;;;;;;;;;;7370535;19;20010;-74
2023/12/19 01:39:30;;;;;;;46.13;21.83;;;;;;;;;;7369731;19;20011;-74
2023/12/19 01:41:55;;;;;;;48.13;20.25;;;;;;;;;;7368862;19;20007;-75
2023/12/19 01:44:21;;;;;;;46.78;20.60;;;;;;;;;;7389398;19;20028;-75
2023/12/19 01:46:47;;;;;;;44.03;20.10;;;;;;;;;;7368327;19;20010;-75
2023/12/19 01:49:13;;;;;;;38.40;19.38;;;;;;;;;;7372540;19;20011;-76
2023/12/19 01:51:38;;;;;;;44.88;20.92;;;;;;;;;;7372759;19;20945;-76
2023/12/19 01:54:06;;;;;;;43.90;21.23;;;;;;;;;;7367007;19;20020;-75
2023/12/19 01:56:32;;;;;;;48.28;20.38;;;;;;;;;;7388912;19;20030;-75
2023/12/19 01:59:00;;;;;;;50.53;20.08;;;;;;;;;;7367939;19;20011;-75
2023/12/19 02:01:25;;;;;;;43.70;19.30;;;;;;;;;;7365962;19;20099;-75
2023/12/19 02:03:51;;;;;;;38.25;18.77;;;;;;;;;;7367549;19;20129;-75
2023/12/19 02:06:18;;;;;;;40.45;19.45;;;;;;;;;;7365208;19;20018;-75
2023/12/19 02:08:44;;;;;;;35.97;18.35;;;;;;;;;;7387408;19;20007;-75
2023/12/19 02:11:10;;;;;;;35.65;17.52;;;;;;;;;;7367675;19;20010;-75
2023/12/19 02:13:35;;;;;;;38.25;19.83;;;;;;;;;;7365647;19;20014;-75
2023/12/19 02:16:01;;;;;;;37.83;19.38;;;;;;;;;;7366209;19;20007;-75
2023/12/19 02:18:26;;;;;;;38.47;18.83;;;;;;;;;;7369090;19;20011;-75
2023/12/19 02:20:53;;;;;;;40.75;19.77;;;;;;;;;;7369155;19;20002;-75
2023/12/19 02:23:19;;;;;;;36.53;19.00;;;;;;;;;;7386984;19;20006;-75
2023/12/19 02:25:44;;;;;;;36.58;18.30;;;;;;;;;;7365857;19;20074;-74
2023/12/19 02:28:09;;;;;;;42.58;19.15;;;;;;;;;;7366101;19;20014;-75
2023/12/19 02:30:35;;;;;;;44.75;20.38;;;;;;;;;;7371702;19;20010;-76
2023/12/19 02:33:01;;;;;;;36.97;18.30;;;;;;;;;;7369584;19;19999;-75
2023/12/19 02:35:27;;;;;;;38.97;18.55;;;;;;;;;;7390609;19;20006;-75
2023/12/19 02:37:52;;;;;;;35.55;19.05;;;;;;;;;;7369457;19;20009;-76
2023/12/19 02:40:17;;;;;;;38.08;19.02;;;;;;;;;;7370120;19;20055;-76
2023/12/19 02:42:43;;;;;;;40.22;19.08;;;;;;;;;;7370647;19;20034;-76
2023/12/19 02:45:10;;;;;;;37.45;18.48;;;;;;;;;;7369862;19;20689;-76
2023/12/19 02:47:35;;;;;;;38.50;18.27;;;;;;;;;;7390536;19;20002;-76
2023/12/19 02:50:01;;;;;;;38.35;17.55;;;;;;;;;;7370679;19;20010;-76
2023/12/19 02:52:26;;;;;;;34.47;16.52;;;;;;;;;;7368686;19;20031;-76
2023/12/19 02:54:51;;;;;;;31.98;16.58;;;;;;;;;;7371093;19;20014;-76
2023/12/19 02:57:17;;;;;;;35.25;16.90;;;;;;;;;;7370704;19;20007;-76
2023/12/19 02:59:42;;;;;;;35.50;16.73;;;;;;;;;;7392194;19;20083;-76
2023/12/19 03:02:07;;;;;;;32.63;15.85;;;;;;;;;;7370778;19;20003;-75
2023/12/19 03:04:33;;;;;;;31.35;16.92;;;;;;;;;;7370231;19;20108;-77
2023/12/19 03:06:58;;;;;;;35.03;16.38;;;;;;;;;;7370927;19;20038;-76
2023/12/19 03:09:24;;;;;;;31.13;16.40;;;;;;;;;;7378835;19;19999;-75
2023/12/19 03:12:08;;;;;;;35.38;16.83;;;;;;;;;;7380269;19;20010;-74
2023/12/19 03:14:34;;;;;;;33.90;16.30;;;;;;;;;;7401211;19;20285;-76
2023/12/19 03:17:01;;;;;;;34.00;16.42;;;;;;;;;;7382472;19;20408;-75
2023/12/19 03:19:27;;;;;;;37.05;16.65;;;;;;;;;;7377752;19;20014;-75
2023/12/19 03:21:52;;;;;;;38.83;17.05;;;;;;;;;;7377001;19;20015;-75
2023/12/19 03:24:18;;;;;;;33.97;16.85;;;;;;;;;;7377172;19;20018;-75
2023/12/19 03:26:59;;;;;;;34.75;17.75;;;;;;;;;;7400971;19;20006;-75
2023/12/19 03:29:24;;;;;;;32.75;16.63;;;;;;;;;;7373581;19;20095;-75
2023/12/19 03:31:49;;;;;;;31.90;16.58;;;;;;;;;;7370221;19;20069;-75
2023/12/19 03:34:15;;;;;;;29.80;15.55;;;;;;;;;;7372144;19;20078;-75
2023/12/19 03:36:40;;;;;;;35.92;16.65;;;;;;;;;;7372733;19;20018;-75
2023/12/19 03:39:05;;;;;;;34.83;16.25;;;;;;;;;;7371210;19;20643;-75
2023/12/19 03:41:31;;;;;;;40.08;17.00;;;;;;;;;;7392798;19;20014;-75
2023/12/19 03:43:56;;;;;;;33.17;16.35;;;;;;;;;;7368908;19;20056;-75
2023/12/19 03:46:21;;;;;;;32.85;16.50;;;;;;;;;;7370577;19;20006;-75
2023/12/19 03:48:47;;;;;;;36.10;17.35;;;;;;;;;;7369967;19;20014;-75
2023/12/19 03:51:12;;;;;;;36.72;16.88;;;;;;;;;;7370820;19;20022;-75
2023/12/19 03:53:38;;;;;;;36.28;17.10;;;;;;;;;;7390174;19;20006;-75
2023/12/19 03:56:04;;;;;;;39.30;18.08;;;;;;;;;;7369229;19;20011;-75
2023/12/19 03:58:29;;;;;;;40.13;18.10;;;;;;;;;;7370882;19;20567;-75
2023/12/19 04:00:54;;;;;;;36.00;17.52;;;;;;;;;;7370789;19;20016;-75
2023/12/19 04:03:20;;;;;;;35.83;17.65;;;;;;;;;;7370967;19;20006;-75
2023/12/19 04:05:45;;;;;;;40.05;17.15;;;;;;;;;;7376507;19;20032;-75
2023/12/19 04:08:10;;;;;;;38.53;18.90;;;;;;;;;;7389353;19;19999;-75
2023/12/19 04:10:36;;;;;;;39.25;20.38;;;;;;;;;;7371562;19;20473;-74
2023/12/19 04:13:01;;;;;;;39.70;18.27;;;;;;;;;;7370327;19;20021;-74
2023/12/19 04:15:27;;;;;;;39.35;18.67;;;;;;;;;;7370607;19;20010;-75
2023/12/19 04:17:52;;;;;;;39.13;18.85;;;;;;;;;;7370278;19;20003;-76
2023/12/19 04:20:17;;;;;;;42.15;19.45;;;;;;;;;;7391540;19;20007;-75
2023/12/19 04:22:43;;;;;;;36.55;19.13;;;;;;;;;;7366792;19;20091;-75
2023/12/19 04:25:08;;;;;;;37.28;19.50;;;;;;;;;;7372580;19;20573;-75
2023/12/19 04:27:34;;;;;;;39.70;19.35;;;;;;;;;;7374568;19;20634;-76
2023/12/19 04:29:59;;;;;;;37.97;19.27;;;;;;;;;;7371295;19;20003;-74
2023/12/19 04:32:24;;;;;;;40.70;19.55;;;;;;;;;;7391675;19;20003;-75
2023/12/19 04:34:49;;;;;;;35.45;18.27;;;;;;;;;;7370467;19;20014;-77
2023/12/19 04:37:15;;;;;;;33.85;18.77;;;;;;;;;;7369231;19;20006;-76
2023/12/19 04:39:40;;;;;;;37.83;19.83;;;;;;;;;;7368785;19;20006;-76
2023/12/19 04:42:07;;;;;;;40.53;19.25;;;;;;;;;;7370925;19;20024;-76
2023/12/19 04:44:35;;;;;;;35.83;18.05;;;;;;;;;;7403086;19;19995;-76
2023/12/19 04:47:02;;;;;;;37.50;18.27;;;;;;;;;;7376045;19;20006;-76
2023/12/19 04:49:27;;;;;;;33.15;18.55;;;;;;;;;;7368445;19;20022;-76
2023/12/19 04:51:52;;;;;;;32.60;17.25;;;;;;;;;;7368729;19;20031;-76
2023/12/19 04:54:21;;;;;;;32.53;17.52;;;;;;;;;;7369785;19;20441;-76
2023/12/19 04:56:46;;;;;;;30.92;16.55;;;;;;;;;;7372147;19;19998;-75
2023/12/19 04:59:12;;;;;;;31.55;17.65;;;;;;;;;;7389685;19;20010;-75
2023/12/19 05:01:40;;;;;;;28.33;15.25;;;;;;;;;;7365630;19;20009;-76
2023/12/19 05:04:06;;;;;;;27.63;15.30;;;;;;;;;;7368272;19;20015;-75
2023/12/19 05:06:32;;;;;;;26.83;14.73;;;;;;;;;;7367101;19;19998;-75
2023/12/19 05:08:57;;;;;;;22.55;13.00;;;;;;;;;;7365435;19;20073;-75
2023/12/19 05:11:22;;;;;;;22.67;11.80;;;;;;;;;;7386798;19;20468;-75
2023/12/19 05:13:49;;;;;;;21.25;11.68;;;;;;;;;;7367548;19;20010;-75
2023/12/19 05:16:16;;;;;;;19.95;10.27;;;;;;;;;;7369070;19;19998;-77
2023/12/19 05:18:43;;;;;;;19.67;10.45;;;;;;;;;;7369982;19;20256;-75
2023/12/19 05:21:09;;;;;;;17.77;10.85;;;;;;;;;;7371561;19;20399;-77
2023/12/19 05:23:35;;;;;;;19.02;11.55;;;;;;;;;;7390209;19;20003;-76
2023/12/19 05:26:01;;;;;;;18.48;10.52;;;;;;;;;;7366628;19;20431;-76
2023/12/19 05:28:26;;;;;;;17.92;10.38;;;;;;;;;;7365151;19;20117;-76
2023/12/19 05:30:56;;;;;;;19.27;10.15;;;;;;;;;;7366530;19;20006;-77
2023/12/19 05:33:22;;;;;;;21.08;11.52;;;;;;;;;;7367856;19;19999;-77
2023/12/19 05:35:47;;;;;;;18.55;10.90;;;;;;;;;;7366384;19;20007;-77
2023/12/19 05:38:13;;;;;;;19.83;11.02;;;;;;;;;;7388276;19;20038;-76
2023/12/19 05:40:42;;;;;;;21.95;13.52;;;;;;;;;;7377069;19;20030;-76
2023/12/19 05:43:08;;;;;;;20.15;11.90;;;;;;;;;;7377155;19;20014;-78
2023/12/19 05:45:34;;;;;;;21.00;11.90;;;;;;;;;;7365808;19;20014;-76
2023/12/19 05:47:59;;;;;;;19.05;11.15;;;;;;;;;;7365625;19;19999;-76
2023/12/19 05:50:24;;;;;;;18.33;10.93;;;;;;;;;;7387610;19;20002;-77
2023/12/19 05:52:50;;;;;;;18.50;10.60;;;;;;;;;;7362114;19;20013;-76
2023/12/19 05:55:15;;;;;;;20.20;11.52;;;;;;;;;;7363574;19;20023;-76
2023/12/19 05:57:40;;;;;;;20.42;11.95;;;;;;;;;;7364573;19;20009;-77
2023/12/19 06:00:06;;;;;;;18.45;11.13;;;;;;;;;;7363983;19;20362;-77
2023/12/19 06:02:32;;;;;;;20.65;12.05;;;;;;;;;;7384744;19;20027;-76
2023/12/19 06:05:00;;;;;;;19.05;10.32;;;;;;;;;;7364336;19;20006;-78
2023/12/19 06:07:25;;;;;;;22.45;12.18;;;;;;;;;;7365192;19;20010;-76
2023/12/19 06:09:51;;;;;;;19.45;11.38;;;;;;;;;;7366183;19;20006;-75
2023/12/19 06:12:17;;;;;;;20.45;12.18;;;;;;;;;;7366611;19;20003;-77
2023/12/19 06:14:43;;;;;;;20.15;12.00;;;;;;;;;;7387967;19;20024;-76
2023/12/19 06:17:08;;;;;;;20.38;11.50;;;;;;;;;;7365159;19;20634;-77
2023/12/19 06:19:34;;;;;;;23.00;13.80;;;;;;;;;;7365181;19;20018;-77
2023/12/19 06:21:59;;;;;;;18.10;10.45;;;;;;;;;;7365573;19;20079;-77
2023/12/19 06:24:24;;;;;;;18.83;10.85;;;;;;;;;;7365163;19;20002;-78
2023/12/19 06:26:50;;;;;;;21.23;11.43;;;;;;;;;;7359630;19;20477;-77
2023/12/19 06:29:16;;;;;;;21.75;12.02;;;;;;;;;;7382805;19;20010;-76
2023/12/19 06:31:45;;;;;;;18.20;11.30;;;;;;;;;;7359555;19;20010;-76
2023/12/19 06:34:11;;;;;;;20.65;11.73;;;;;;;;;;7362750;19;20081;-77
2023/12/19 06:36:38;;;;;;;19.63;11.68;;;;;;;;;;7363240;19;20014;-77
2023/12/19 06:39:04;;;;;;;19.88;11.63;;;;;;;;;;7364305;19;20015;-77
2023/12/19 06:41:29;;;;;;;21.50;11.65;;;;;;;;;;7374012;19;20062;-77
2023/12/19 06:43:54;;;;;;;23.65;13.10;;;;;;;;;;7358468;19;20026;-78
2023/12/19 06:46:20;;;;;;;25.00;12.80;;;;;;;;;;7361628;19;19995;-78
2023/12/19 06:48:48;;;;;;;21.92;12.45;;;;;;;;;;7365316;19;20007;-77
2023/12/19 06:51:26;;;;;;;24.42;13.57;;;;;;;;;;7363456;19;19995;-76
2023/12/19 06:53:54;;;;;;;26.02;11.75;;;;;;;;;;7361909;19;20002;-76
2023/12/19 06:56:20;;;;;;;26.25;13.85;;;;;;;;;;7385695;19;20512;-77
2023/12/19 06:58:47;;;;;;;21.42;12.15;;;;;;;;;;7375004;19;20013;-77
2023/12/19 07:01:13;;;;;;;23.52;13.55;;;;;;;;;;7370349;19;20003;-76
2023/12/19 07:03:40;;;;;;;27.95;15.57;;;;;;;;;;7362686;19;20332;-77
2023/12/19 07:06:06;;;;;;;28.13;15.05;;;;;;;;;;7363480;19;20010;-76
2023/12/19 07:08:32;;;;;;;27.40;15.50;;;;;;;;;;7382815;19;20013;-76
2023/12/19 07:10:57;;;;;;;33.45;16.30;;;;;;;;;;7357919;19;20038;-75
2023/12/19 07:13:23;;;;;;;30.20;15.90;;;;;;;;;;7361173;19;20035;-78
2023/12/19 07:15:48;;;;;;;25.58;15.50;;;;;;;;;;7362795;19;20006;-77
2023/12/19 07:18:13;;;;;;;28.90;16.08;;;;;;;;;;7361689;19;20610;-77
2023/12/19 07:20:39;;;;;;;31.45;17.17;;;;;;;;;;7382923;19;20374;-77
2023/12/19 07:23:04;;;;;;;30.25;16.48;;;;;;;;;;7361832;19;20014;-77
2023/12/19 07:25:29;;;;;;;30.55;16.65;;;;;;;;;;7367876;19;20028;-77
2023/12/19 07:27:55;;;;;;;29.55;15.82;;;;;;;;;;7368391;19;20468;-77
2023/12/19 07:30:20;;;;;;;28.05;15.93;;;;;;;;;;7370995;19;20027;-77
2023/12/19 07:32:49;;;;;;;29.83;17.42;;;;;;;;;;7370462;19;20002;-75
2023/12/19 07:35:15;;;;;;;31.88;16.70;;;;;;;;;;7390744;19;20009;-77
2023/12/19 07:37:40;;;;;;;30.67;16.63;;;;;;;;;;7367705;19;20326;-77
2023/12/19 07:40:10;;;;;;;28.48;15.73;;;;;;;;;;7372825;19;20624;-75
2023/12/19 07:42:35;;;;;;;30.40;17.17;;;;;;;;;;7372206;19;19998;-77
2023/12/19 07:45:02;;;;;;;30.98;16.20;;;;;;;;;;7371328;19;20005;-77
2023/12/19 07:47:28;;;;;;;29.00;15.00;;;;;;;;;;7389662;19;20014;-76
2023/12/19 07:49:53;;;;;;;27.38;15.35;;;;;;;;;;7368681;19;20748;-76
2023/12/19 07:52:19;;;;;;;28.70;16.20;;;;;;;;;;7370324;19;20092;-75
2023/12/19 07:54:44;;;;;;;29.02;16.17;;;;;;;;;;7367901;19;20006;-76
2023/12/19 07:57:09;;;;;;;29.50;16.77;;;;;;;;;;7367128;19;20359;-76
2023/12/19 07:59:35;;;;;;;28.92;14.63;;;;;;;;;;7391533;19;20496;-77
2023/12/19 08:02:00;;;;;;;23.05;14.30;;;;;;;;;;7370181;19;20603;-77
2023/12/19 08:04:25;;;;;;;26.40;14.45;;;;;;;;;;7367484;19;20009;-77
2023/12/19 08:06:51;;;;;;;26.13;13.95;;;;;;;;;;7368462;19;20002;-76
2023/12/19 08:09:16;;;;;;;25.58;13.57;;;;;;;;;;7368087;19;20003;-76
2023/12/19 08:11:42;;;;;;;25.75;13.68;;;;;;;;;;7393193;19;20001;-75
2023/12/19 08:14:07;;;;;;;26.52;13.95;;;;;;;;;;7370461;19;20007;-76
2023/12/19 08:16:33;;;;;;;25.60;14.02;;;;;;;;;;7369812;19;20002;-75
2023/12/19 08:18:58;;;;;;;23.35;13.00;;;;;;;;;;7370666;19;20006;-75
2023/12/19 08:21:23;;;;;;;22.83;12.48;;;;;;;;;;7376311;19;20417;-75
2023/12/19 08:23:49;;;;;;;24.83;13.32;;;;;;;;;;7375514;19;20002;-76
2023/12/19 08:26:14;;;;;;;24.98;12.90;;;;;;;;;;7392635;19;20006;-75
2023/12/19 08:28:39;;;;;;;24.42;13.27;;;;;;;;;;7365580;19;20631;-76
2023/12/19 08:31:05;;;;;;;23.98;13.15;;;;;;;;;;7368497;19;20010;-75
2023/12/19 08:33:30;;;;;;;24.95;13.63;;;;;;;;;;7365767;19;20002;-75
2023/12/19 08:35:55;;;;;;;27.20;12.55;;;;;;;;;;7363607;19;20010;-75
2023/12/19 08:38:21;;;;;;;22.42;12.43;;;;;;;;;;7388735;19;20090;-75
2023/12/19 08:40:46;;;;;;;25.50;12.77;;;;;;;;;;7369041;19;20662;-75
2023/12/19 08:43:11;;;;;;;23.50;12.10;;;;;;;;;;7365742;19;20014;-76
2023/12/19 08:45:37;;;;;;;22.45;11.60;;;;;;;;;;7367330;19;20003;-75
2023/12/19 08:48:04;;;;;;;22.02;11.13;;;;;;;;;;7364874;19;20022;-75
2023/12/19 08:50:30;;;;;;;21.40;11.65;;;;;;;;;;7389624;19;20007;-75
2023/12/19 08:52:55;;;;;;;19.92;10.80;;;;;;;;;;7361200;19;20086;-75
2023/12/19 08:55:21;;;;;;;20.05;11.25;;;;;;;;;;7367240;19;20007;-75
2023/12/19 08:57:46;;;;;;;21.08;11.43;;;;;;;;;;7371603;19;20017;-75
2023/12/19 09:00:19;;;;;;;23.45;12.07;;;;;;;;;;7373041;19;20016;-76
2023/12/19 09:02:46;;;;;;;20.50;11.15;;;;;;;;;;7379912;19;20010;-74
2023/12/19 09:05:16;;;;;;;22.02;12.10;;;;;;;;;;7391876;19;20007;-75
2023/12/19 09:07:42;;;;;;;22.15;11.40;;;;;;;;;;7367697;19;20034;-77
2023/12/19 09:10:10;;;;;;;21.80;10.68;;;;;;;;;;7368254;19;20020;-75
2023/12/19 09:12:36;;;;;;;20.65;10.85;;;;;;;;;;7371590;19;20010;-76
2023/12/19 09:15:02;;;;;;;21.38;10.85;;;;;;;;;;7372581;19;20680;-75
2023/12/19 09:17:28;;;;;;;20.25;10.77;;;;;;;;;;7386888;19;20013;-76
2023/12/19 09:19:55;;;;;;;22.60;11.50;;;;;;;;;;7365050;19;20003;-76
2023/12/19 09:22:20;;;;;;;19.17;9.57;;;;;;;;;;7365108;19;20072;-77
2023/12/19 09:24:45;;;;;;;18.73;10.48;;;;;;;;;;7365463;19;20006;-76
2023/12/19 09:27:11;;;;;;;17.27;9.95;;;;;;;;;;7368222;19;20006;-76
2023/12/19 09:29:36;;;;;;;17.35;9.75;;;;;;;;;;7387342;19;20005;-76
2023/12/19 09:32:04;;;;;;;16.10;8.85;;;;;;;;;;7364180;19;20003;-76
2023/12/19 09:34:30;;;;;;;16.13;9.05;;;;;;;;;;7364745;19;20009;-76
2023/12/19 09:36:56;;;;;;;19.30;9.85;;;;;;;;;;7364193;19;20369;-75
2023/12/19 09:39:21;;;;;;;15.77;8.63;;;;;;;;;;7366183;19;20010;-75
2023/12/19 09:41:47;;;;;;;15.07;9.10;;;;;;;;;;7365506;19;19999;-77
2023/12/19 09:44:12;;;;;;;16.95;9.82;;;;;;;;;;7385728;19;20018;-76
2023/12/19 09:46:38;;;;;;;16.88;9.25;;;;;;;;;;7364201;19;20006;-76
2023/12/19 09:49:04;;;;;;;18.17;9.63;;;;;;;;;;7364425;19;20010;-76
2023/12/19 09:51:32;;;;;;;17.02;9.07;;;;;;;;;;7365007;19;20010;-76
2023/12/19 09:54:00;;;;;;;17.58;9.65;;;;;;;;;;7363370;19;20022;-76
2023/12/19 09:56:26;;;;;;;17.85;9.57;;;;;;;;;;7384862;19;20002;-77
2023/12/19 09:58:53;;;;;;;16.48;9.02;;;;;;;;;;7362985;19;20894;-76
2023/12/19 10:01:18;;;;;;;16.55;9.15;;;;;;;;;;7363165;19;19994;-76
2023/12/19 10:03:44;;;;;;;14.98;8.30;;;;;;;;;;7363573;19;20014;-77
2023/12/19 10:06:10;;;;;;;15.25;8.73;;;;;;;;;;7364725;19;19998;-76
2023/12/19 10:08:39;;;;;;;14.95;8.43;;;;;;;;;;7385671;19;20080;-75
2023/12/19 10:11:05;;;;;;;15.70;9.05;;;;;;;;;;7365321;19;19999;-75
2023/12/19 10:13:35;;;;;;;19.80;10.05;;;;;;;;;;7363591;19;20354;-76
2023/12/19 10:16:06;;;;;;;13.77;8.30;;;;;;;;;;7368161;19;19999;-76
2023/12/19 10:18:32;;;;;;;15.35;8.98;;;;;;;;;;7364591;19;20003;-74
2023/12/19 10:21:04;;;;;;;14.77;8.48;;;;;;;;;;7364327;19;19995;-76
2023/12/19 10:23:33;;;;;;;13.60;8.90;;;;;;;;;;7383838;19;20054;-76
2023/12/19 10:25:59;;;;;;;13.73;8.45;;;;;;;;;;7362858;19;20019;-75
2023/12/19 10:28:24;;;;;;;17.88;9.30;;;;;;;;;;7361443;19;20018;-76
2023/12/19 10:30:50;;;;;;;14.35;8.25;;;;;;;;;;7363208;19;20027;-76
2023/12/19 10:33:15;;;;;;;16.05;8.75;;;;;;;;;;7362608;19;20011;-74
2023/12/19 10:35:44;;;;;;;15.88;9.70;;;;;;;;;;7384719;19;20429;-76
2023/12/19 10:38:10;;;;;;;16.27;8.60;;;;;;;;;;7363499;19;20100;-75
2023/12/19 10:40:35;;;;;;;14.60;7.47;;;;;;;;;;7364210;19;20006;-76
2023/12/19 10:43:02;;;;;;;14.63;8.48;;;;;;;;;;7368478;19;20006;-76
2023/12/19 10:45:27;;;;;;;14.55;8.00;;;;;;;;;;7371325;19;20002;-76
2023/12/19 10:47:53;;;;;;;14.85;7.53;;;;;;;;;;7371157;19;20002;-75
2023/12/19 10:50:19;;;;;;;16.13;8.20;;;;;;;;;;7394649;19;19999;-76
2023/12/19 10:52:49;;;;;;;12.40;7.22;;;;;;;;;;7370950;19;20020;-76
2023/12/19 10:55:17;;;;;;;14.57;7.28;;;;;;;;;;7370277;19;20112;-76
2023/12/19 10:57:46;;;;;;;12.70;8.45;;;;;;;;;;7371108;19;20058;-76
2023/12/19 11:00:21;;;;;;;13.25;7.22;;;;;;;;;;7376260;19;20338;-76
2023/12/19 11:02:59;;;;;;;12.68;7.07;;;;;;;;;;7374149;19;20018;-75
2023/12/19 11:05:47;;;;;;;11.55;6.97;;;;;;;;;;7392350;19;20465;-75
2023/12/19 11:08:17;;;;;;;13.65;7.07;;;;;;;;;;7371385;19;20002;-76
2023/12/19 11:11:17;;;;;;;13.27;7.07;;;;;;;;;;7376808;19;20025;-76
2023/12/19 11:13:44;;;;;;;12.30;6.95;;;;;;;;;;7368275;19;20038;-75
2023/12/19 11:16:17;;;;;;;12.25;6.65;;;;;;;;;;7369011;19;19998;-75
2023/12/19 11:18:49;;;;;;;14.48;7.30;;;;;;;;;;7371693;19;20456;-76
2023/12/19 11:21:17;;;;;;;;;;;;;;;;;;7373007;19;20358;-76
2023/12/19 11:24:01;;;;;;;13.05;7.38;;;;;;;;;;7395850;19;19917;-76
2023/12/19 11:26:36;;;;;;;12.43;7.20;;;;;;;;;;7371705;19;20002;-75
2023/12/19 11:29:01;;;;;;;12.30;7.05;;;;;;;;;;7374770;19;20027;-76
2023/12/19 11:31:35;;;;;;;12.32;7.35;;;;;;;;;;7377470;19;20007;-76
2023/12/19 11:34:23;;;;;;;12.98;7.10;;;;;;;;;;7371271;19;20015;-76
2023/12/19 11:37:06;;;;;;;12.02;6.53;;;;;;;;;;7370094;19;20003;-76
2023/12/19 11:39:33;;;;;;;14.18;6.88;;;;;;;;;;7370338;19;20012;-76
2023/12/19 11:41:58;;;;;;;14.10;7.28;;;;;;;;;;7370657;19;20009;-76
2023/12/19 11:44:34;;;;;;;12.15;6.90;;;;;;;;;;7389689;19;20065;-76
2023/12/19 11:47:15;;;;;;;16.48;7.63;;;;;;;;;;7369378;19;19999;-75
2023/12/19 11:49:41;;;;;;;14.35;7.47;;;;;;;;;;7369627;19;20532;-75
2023/12/19 11:52:06;;;;;;;13.25;7.70;;;;;;;;;;7369435;19;20022;-75
2023/12/19 11:54:32;;;;;;;13.63;7.20;;;;;;;;;;7366609;19;20473;-75
2023/12/19 11:56:59;;;;;;;11.98;7.45;;;;;;;;;;7368096;19;20073;-76
2023/12/19 11:59:44;;;;;;;17.10;8.60;;;;;;;;;;7390834;19;20002;-77
2023/12/19 12:02:11;;;;;;;14.43;7.78;;;;;;;;;;7367864;19;20099;-76
2023/12/19 12:04:36;;;;;;;15.50;8.40;;;;;;;;;;7367651;19;20927;-76
2023/12/19 12:07:02;;;;;;;15.48;7.68;;;;;;;;;;7368390;19;20015;-76
2023/12/19 12:09:27;;;;;;;17.67;7.28;;;;;;;;;;7366295;19;20006;-77
2023/12/19 12:11:54;;;;;;;16.27;8.65;;;;;;;;;;7372420;19;20597;-76
2023/12/19 12:14:21;;;;;;;16.73;9.05;;;;;;;;;;7387856;19;19995;-76
2023/12/19 12:16:46;;;;;;;17.02;8.65;;;;;;;;;;7368024;19;20026;-76
2023/12/19 12:19:19;;;;;;;17.73;9.43;;;;;;;;;;7369182;19;20002;-76
2023/12/19 12:21:49;;;;;;;16.25;9.05;;;;;;;;;;7367679;19;20032;-76
2023/12/19 12:24:25;;;;;;;18.40;9.10;;;;;;;;;;7355428;19;19999;-76
2023/12/19 12:26:51;;;;;;;17.98;9.35;;;;;;;;;;7367873;19;20001;-76
2023/12/19 12:29:19;;;;;;;18.40;10.15;;;;;;;;;;7386836;19;19994;-76
2023/12/19 12:31:48;;;;;;;17.00;9.70;;;;;;;;;;7371240;19;20003;-76
2023/12/19 12:34:17;;;;;;;16.98;9.20;;;;;;;;;;7369530;19;20003;-76
2023/12/19 12:36:46;;;;;;;18.67;9.27;;;;;;;;;;7367421;19;20024;-76
2023/12/19 12:39:18;;;;;;;16.55;8.23;;;;;;;;;;7368261;19;20010;-76
2023/12/19 12:41:43;;;;;;;13.98;8.18;;;;;;;;;;7389335;19;20560;-76
2023/12/19 12:44:12;;;;;;;18.08;9.15;;;;;;;;;;7365622;19;20027;-76
2023/12/19 12:46:47;;;;;;;16.80;9.50;;;;;;;;;;7373011;19;20003;-76
2023/12/19 12:49:17;;;;;;;17.90;9.82;;;;;;;;;;7372485;19;19998;-76
2023/12/19 12:51:43;;;;;;;16.88;9.02;;;;;;;;;;7373590;19;20113;-76
2023/12/19 12:54:08;;;;;;;17.52;10.20;;;;;;;;;;7366457;19;20014;-76
2023/12/19 12:56:36;;;;;;;18.05;9.40;;;;;;;;;;7388191;19;19995;-76
2023/12/19 12:59:09;;;;;;;15.75;8.90;;;;;;;;;;7367027;19;20014;-76
2023/12/19 13:01:35;;;;;;;15.75;8.82;;;;;;;;;;7366966;19;20365;-76
2023/12/19 13:04:02;;;;;;;16.42;8.68;;;;;;;;;;7367709;19;20027;-76
2023/12/19 13:06:28;;;;;;;16.20;9.13;;;;;;;;;;7366470;19;20647;-76
2023/12/19 13:08:54;;;;;;;14.63;8.55;;;;;;;;;;7366112;19;20007;-75
2023/12/19 13:11:23;;;;;;;16.33;9.25;;;;;;;;;;7388713;19;20014;-76
2023/12/19 13:13:49;;;;;;;15.18;8.70;;;;;;;;;;7367412;19;20018;-75
2023/12/19 13:16:16;;;;;;;15.10;8.95;;;;;;;;;;7365264;19;20088;-75
2023/12/19 13:18:44;;;;;;;14.48;8.50;;;;;;;;;;7366365;19;20021;-75
2023/12/19 13:21:10;;;;;;;16.83;9.40;;;;;;;;;;7364802;19;20011;-75
2023/12/19 13:23:35;;;;;;;15.73;8.77;;;;;;;;;;7387208;19;19997;-75
2023/12/19 13:26:02;;;;;;;13.70;8.48;;;;;;;;;;7364901;19;20327;-76
2023/12/19 13:28:27;;;;;;;15.00;8.45;;;;;;;;;;7366747;19;20006;-76
2023/12/19 13:30:52;;;;;;;15.10;8.00;;;;;;;;;;7371344;19;20006;-76
2023/12/19 13:33:18;;;;;;;13.80;8.60;;;;;;;;;;7364884;19;20005;-76
2023/12/19 13:35:44;;;;;;;15.05;8.65;;;;;;;;;;7385306;19;20039;-76
2023/12/19 13:38:09;;;;;;;14.60;8.43;;;;;;;;;;7362599;19;20023;-76
2023/12/19 13:40:36;;;;;;;13.80;8.13;;;;;;;;;;7364800;19;19995;-76
2023/12/19 13:43:02;;;;;;;13.80;8.50;;;;;;;;;;7355250;19;20006;-76
2023/12/19 13:45:28;;;;;;;13.90;7.53;;;;;;;;;;7379880;19;20070;-76
2023/12/19 13:47:54;;;;;;;14.20;7.63;;;;;;;;;;7370664;19;20022;-76
2023/12/19 13:50:20;;;;;;;13.63;8.35;;;;;;;;;;7386751;19;20613;-76
2023/12/19 13:52:48;;;;;;;15.43;8.55;;;;;;;;;;7364381;19;20966;-76
2023/12/19 13:55:14;;;;;;;16.05;8.55;;;;;;;;;;7367710;19;20001;-77
2023/12/19 13:57:39;;;;;;;14.45;8.60;;;;;;;;;;7368754;19;19998;-77
2023/12/19 14:00:07;;;;;;;13.35;8.07;;;;;;;;;;7365390;19;19992;-75
2023/12/19 14:02:33;;;;;;;16.08;8.15;;;;;;;;;;7384308;19;20015;-76
2023/12/19 14:04:58;;;;;;;13.48;8.10;;;;;;;;;;7363298;19;20059;-76
2023/12/19 14:07:23;;;;;;;13.80;7.57;;;;;;;;;;7368631;19;20005;-76
2023/12/19 14:09:49;;;;;;;13.52;7.93;;;;;;;;;;7367247;19;20127;-76
2023/12/19 14:12:14;;;;;;;13.05;7.22;;;;;;;;;;7362789;19;20015;-77
2023/12/19 14:14:40;;;;;;;13.68;7.75;;;;;;;;;;7386423;19;20023;-76
2023/12/19 14:17:06;;;;;;;12.35;7.63;;;;;;;;;;7363742;19;20015;-77
2023/12/19 14:19:32;;;;;;;11.50;7.50;;;;;;;;;;7363322;19;20410;-77